createdAt,value
2018-03-19T00:00:00.271Z,58.80
2018-03-19T00:01:02.782Z,58.20
2018-03-19T00:02:06.051Z,58.10
2018-03-19T00:03:08.608Z,58.00
2018-03-19T00:04:11.108Z,58.40
2018-03-19T00:05:14.565Z,58.20
2018-03-19T00:06:17.064Z,58.20
2018-03-19T00:07:20.325Z,58.20
2018-03-19T00:08:22.810Z,58.20
2018-03-19T00:09:25.342Z,58.00
2018-03-19T00:10:27.832Z,57.90
2018-03-19T00:11:30.314Z,58.10
2018-03-19T00:12:32.832Z,58.30
2018-03-19T00:13:35.334Z,58.20
2018-03-19T00:14:37.966Z,58.00
2018-03-19T00:16:49.531Z,58.20
2018-03-19T00:17:52.035Z,58.40
2018-03-19T00:18:55.300Z,58.70
2018-03-19T00:19:58.644Z,58.90
2018-03-19T00:21:01.145Z,58.80
2018-03-19T00:22:03.688Z,58.70
2018-03-19T00:23:06.181Z,58.60
2018-03-19T00:24:08.992Z,59.00
2018-03-19T00:25:11.503Z,58.80
2018-03-19T00:26:14.008Z,59.10
2018-03-19T00:27:16.490Z,59.00
2018-03-19T00:28:19.765Z,59.40
2018-03-19T00:29:22.272Z,59.40
2018-03-19T00:30:24.793Z,59.40
2018-03-19T00:31:27.298Z,59.30
2018-03-19T00:32:29.804Z,59.50
2018-03-19T00:33:32.305Z,59.60
2018-03-19T00:34:34.813Z,59.40
2018-03-19T00:35:37.318Z,59.60
2018-03-19T00:36:39.831Z,59.70
2018-03-19T00:37:43.093Z,60.00
2018-03-19T00:38:45.594Z,59.90
2018-03-19T00:39:48.851Z,59.40
2018-03-19T00:40:51.326Z,59.40
2018-03-19T00:41:53.815Z,59.20
2018-03-19T00:42:57.100Z,59.20
2018-03-19T00:44:00.367Z,59.90
2018-03-19T00:45:02.912Z,59.90
2018-03-19T00:46:05.511Z,60.30
2018-03-19T00:47:08.014Z,60.10
2018-03-19T00:48:11.300Z,60.30
2018-03-19T00:49:14.580Z,60.10
2018-03-19T00:50:17.076Z,60.00
2018-03-19T00:51:19.594Z,60.00
2018-03-19T00:52:22.129Z,59.90
2018-03-19T00:53:24.649Z,59.60
2018-03-19T00:54:27.152Z,59.70
2018-03-19T00:55:30.414Z,60.30
2018-03-19T00:56:32.941Z,60.20
2018-03-19T00:57:35.441Z,60.30
2018-03-19T00:58:37.961Z,60.70
2018-03-19T00:59:40.455Z,60.70
2018-03-19T01:00:42.940Z,61.40
2018-03-19T01:01:45.434Z,60.90
2018-03-19T01:02:47.926Z,61.00
2018-03-19T01:03:51.216Z,61.40
2018-03-19T01:04:54.482Z,61.30
2018-03-19T01:05:56.978Z,61.20
2018-03-19T01:07:00.241Z,61.20
2018-03-19T01:08:02.767Z,61.10
2018-03-19T01:09:05.312Z,61.20
2018-03-19T01:10:07.830Z,61.30
2018-03-19T01:11:10.331Z,61.10
2018-03-19T01:12:12.822Z,61.20
2018-03-19T01:13:15.334Z,61.20
2018-03-19T01:14:17.853Z,61.10
2018-03-19T01:15:21.126Z,61.30
2018-03-19T01:16:23.617Z,61.30
2018-03-19T01:17:26.114Z,61.50
2018-03-19T01:18:28.626Z,61.60
2018-03-19T01:19:31.153Z,62.00
2018-03-19T01:20:33.680Z,61.90
2018-03-19T01:21:36.181Z,61.50
2018-03-19T01:22:38.688Z,61.30
2018-03-19T01:23:41.184Z,61.50
2018-03-19T01:24:43.710Z,61.30
2018-03-19T01:25:46.206Z,61.00
2018-03-19T01:26:48.707Z,61.20
2018-03-19T01:27:51.242Z,61.10
2018-03-19T01:28:53.788Z,61.20
2018-03-19T01:29:56.344Z,61.50
2018-03-19T01:30:58.857Z,61.80
2018-03-19T01:32:01.408Z,62.20
2018-03-19T01:33:03.902Z,61.50
2018-03-19T01:34:06.464Z,61.70
2018-03-19T01:35:08.970Z,61.20
2018-03-19T01:36:12.235Z,61.30
2018-03-19T01:37:14.746Z,61.30
2018-03-19T01:38:18.016Z,61.90
2018-03-19T01:39:21.281Z,61.60
2018-03-19T01:40:24.592Z,61.70
2018-03-19T01:41:27.089Z,61.60
2018-03-19T01:42:29.591Z,61.50
2018-03-19T01:43:32.079Z,61.70
2018-03-19T01:44:34.582Z,61.70
2018-03-19T01:45:37.111Z,62.60
2018-03-19T01:46:39.610Z,61.70
2018-03-19T01:47:42.886Z,61.80
2018-03-19T01:48:45.388Z,61.80
2018-03-19T01:49:48.653Z,61.80
2018-03-19T01:50:51.169Z,61.80
2018-03-19T01:51:53.669Z,62.10
2018-03-19T01:52:56.178Z,62.30
2018-03-19T01:53:59.459Z,62.00
2018-03-19T01:55:02.786Z,62.20
2018-03-19T01:56:05.327Z,62.20
2018-03-19T01:57:08.588Z,62.30
2018-03-19T01:58:11.123Z,62.30
2018-03-19T01:59:13.632Z,62.10
2018-03-19T02:00:16.129Z,62.60
2018-03-19T02:01:19.415Z,62.70
2018-03-19T02:02:22.690Z,62.70
2018-03-19T02:03:25.950Z,63.70
2018-03-19T02:04:28.442Z,62.90
2018-03-19T02:05:30.939Z,63.20
2018-03-19T02:06:34.230Z,63.70
2018-03-19T02:07:36.723Z,63.50
2018-03-19T02:08:39.231Z,63.60
2018-03-19T02:09:41.720Z,63.90
2018-03-19T02:10:44.977Z,64.10
2018-03-19T02:11:47.493Z,64.10
2018-03-19T02:12:50.793Z,64.50
2018-03-19T02:13:53.293Z,64.50
2018-03-19T02:14:55.808Z,64.50
2018-03-19T02:15:59.080Z,64.30
2018-03-19T02:17:01.592Z,64.30
2018-03-19T02:18:04.104Z,64.70
2018-03-19T02:19:06.604Z,64.80
2018-03-19T02:20:09.142Z,64.80
2018-03-19T02:21:11.632Z,64.70
2018-03-19T02:22:14.133Z,64.80
2018-03-19T02:23:17.389Z,65.30
2018-03-19T02:24:19.887Z,65.30
2018-03-19T02:25:22.382Z,65.60
2018-03-19T02:26:24.875Z,65.00
2018-03-19T02:27:27.415Z,64.90
2018-03-19T02:28:29.916Z,64.80
2018-03-19T02:29:32.414Z,64.80
2018-03-19T02:30:34.933Z,65.10
2018-03-19T02:31:37.432Z,65.30
2018-03-19T02:32:39.939Z,65.60
2018-03-19T02:33:42.469Z,65.70
2018-03-19T02:34:45.840Z,65.10
2018-03-19T02:35:49.102Z,65.30
2018-03-19T02:36:51.582Z,65.20
2018-03-19T02:37:54.099Z,65.20
2018-03-19T02:38:56.603Z,65.00
2018-03-19T02:39:59.084Z,65.10
2018-03-19T02:41:01.557Z,64.90
2018-03-19T02:42:04.063Z,64.80
2018-03-19T02:43:07.324Z,65.20
2018-03-19T02:44:09.959Z,65.10
2018-03-19T02:45:12.443Z,64.90
2018-03-19T02:46:14.935Z,64.60
2018-03-19T02:47:17.413Z,65.00
2018-03-19T02:48:19.910Z,64.60
2018-03-19T02:49:23.161Z,64.80
2018-03-19T02:50:25.650Z,64.70
2018-03-19T02:51:28.899Z,65.00
2018-03-19T02:52:31.380Z,64.90
2018-03-19T02:53:34.637Z,65.40
2018-03-19T02:54:39.563Z,65.40
2018-03-19T02:55:44.438Z,65.50
2018-03-19T02:56:49.131Z,65.80
2018-03-19T02:57:52.250Z,65.60
2018-03-19T02:58:55.961Z,65.90
2018-03-19T02:59:58.485Z,65.80
2018-03-19T03:01:00.963Z,65.70
2018-03-19T03:02:03.471Z,66.20
2018-03-19T03:03:05.957Z,66.40
2018-03-19T03:04:08.499Z,66.10
2018-03-19T03:05:11.773Z,66.20
2018-03-19T03:06:14.270Z,66.10
2018-03-19T03:07:16.738Z,66.10
2018-03-19T03:08:19.987Z,67.20
2018-03-19T03:09:22.479Z,66.30
2018-03-19T03:10:24.957Z,66.30
2018-03-19T03:11:27.447Z,66.30
2018-03-19T03:12:29.928Z,66.10
2018-03-19T03:13:32.409Z,66.30
2018-03-19T03:14:34.898Z,66.40
2018-03-19T03:15:37.387Z,66.20
2018-03-19T03:16:39.852Z,66.20
2018-03-19T03:17:42.382Z,66.10
2018-03-19T03:18:44.857Z,66.10
2018-03-19T03:19:47.352Z,66.40
2018-03-19T03:20:49.889Z,66.30
2018-03-19T03:21:53.132Z,66.10
2018-03-19T03:22:55.616Z,66.10
2018-03-19T03:23:58.093Z,66.00
2018-03-19T03:25:00.574Z,66.20
2018-03-19T03:26:03.839Z,66.10
2018-03-19T03:27:06.310Z,66.10
2018-03-19T03:28:08.785Z,66.20
2018-03-19T03:29:11.347Z,66.20
2018-03-19T03:30:13.839Z,66.50
2018-03-19T03:31:17.099Z,66.30
2018-03-19T03:32:19.582Z,65.90
2018-03-19T03:33:22.076Z,65.80
2018-03-19T03:34:25.312Z,65.70
2018-03-19T03:35:28.192Z,65.60
2018-03-19T03:36:30.667Z,65.70
2018-03-19T03:37:33.165Z,65.60
2018-03-19T03:38:35.664Z,65.80
2018-03-19T03:39:38.921Z,65.30
2018-03-19T03:40:41.433Z,65.30
2018-03-19T03:41:43.946Z,65.30
2018-03-19T03:42:47.242Z,65.30
2018-03-19T03:43:49.772Z,65.70
2018-03-19T03:44:52.281Z,65.40
2018-03-19T03:45:54.776Z,65.60
2018-03-19T03:46:57.266Z,65.80
2018-03-19T03:48:00.585Z,65.90
2018-03-19T03:49:03.074Z,65.90
2018-03-19T03:50:05.571Z,66.20
2018-03-19T03:51:08.070Z,66.50
2018-03-19T03:52:10.552Z,66.60
2018-03-19T03:53:13.055Z,67.00
2018-03-19T03:54:15.552Z,66.50
2018-03-19T03:55:18.052Z,66.50
2018-03-19T03:56:21.328Z,66.70
2018-03-19T03:57:24.607Z,67.00
2018-03-19T03:58:27.087Z,66.90
2018-03-19T03:59:30.315Z,67.30
2018-03-19T04:00:32.811Z,67.30
2018-03-19T04:01:35.289Z,67.50
2018-03-19T04:02:37.777Z,67.60
2018-03-19T04:03:40.264Z,67.50
2018-03-19T04:04:42.742Z,67.50
2018-03-19T04:05:45.997Z,67.80
2018-03-19T04:06:48.481Z,67.60
2018-03-19T04:07:50.973Z,68.50
2018-03-19T04:08:53.457Z,68.30
2018-03-19T04:09:55.923Z,68.20
2018-03-19T04:10:58.410Z,68.50
2018-03-19T04:12:00.887Z,68.10
2018-03-19T04:13:03.389Z,68.20
2018-03-19T04:14:05.881Z,68.20
2018-03-19T04:15:09.125Z,68.30
2018-03-19T04:16:11.606Z,68.30
2018-03-19T04:17:14.093Z,68.40
2018-03-19T04:18:16.600Z,68.20
2018-03-19T04:19:19.074Z,68.40
2018-03-19T04:20:21.660Z,68.70
2018-03-19T04:21:24.100Z,68.80
2018-03-19T04:22:27.363Z,69.50
2018-03-19T04:23:29.861Z,68.90
2018-03-19T04:24:32.352Z,68.40
2018-03-19T04:25:34.843Z,68.30
2018-03-19T04:26:42.627Z,68.70
2018-03-19T04:27:46.066Z,68.90
2018-03-19T04:28:50.499Z,69.00
2018-03-19T04:29:54.473Z,68.80
2018-03-19T04:30:58.371Z,68.40
2018-03-19T04:32:00.883Z,68.40
2018-03-19T04:33:03.362Z,68.20
2018-03-19T04:34:05.858Z,68.20
2018-03-19T04:35:09.105Z,68.20
2018-03-19T04:36:11.580Z,68.20
2018-03-19T04:37:14.070Z,68.40
2018-03-19T04:38:16.563Z,68.60
2018-03-19T04:39:19.821Z,68.60
2018-03-19T04:40:22.326Z,68.60
2018-03-19T04:41:25.601Z,68.90
2018-03-19T04:42:28.850Z,68.40
2018-03-19T04:43:31.332Z,68.40
2018-03-19T04:44:33.826Z,68.80
2018-03-19T04:45:36.296Z,68.60
2018-03-19T04:46:39.569Z,68.90
2018-03-19T04:47:42.046Z,69.00
2018-03-19T04:48:44.568Z,68.50
2018-03-19T04:49:47.064Z,68.90
2018-03-19T04:50:51.020Z,69.10
2018-03-19T04:51:53.516Z,68.80
2018-03-19T04:52:56.538Z,69.30
2018-03-19T04:53:59.027Z,69.50
2018-03-19T04:55:01.901Z,69.30
2018-03-19T04:56:04.409Z,69.50
2018-03-19T04:57:06.890Z,69.30
2018-03-19T04:58:09.471Z,69.50
2018-03-19T04:59:12.109Z,69.70
2018-03-19T05:00:15.358Z,69.80
2018-03-19T05:01:17.885Z,69.80
2018-03-19T05:02:20.371Z,69.80
2018-03-19T05:03:22.867Z,69.70
2018-03-19T05:04:25.354Z,69.80
2018-03-19T05:05:27.844Z,69.80
2018-03-19T05:06:30.327Z,70.10
2018-03-19T05:07:34.391Z,70.40
2018-03-19T05:08:36.872Z,70.30
2018-03-19T05:09:39.346Z,70.10
2018-03-19T05:10:41.843Z,70.20
2018-03-19T05:11:45.103Z,70.00
2018-03-19T05:12:47.593Z,69.90
2018-03-19T05:13:50.850Z,70.40
2018-03-19T05:14:53.318Z,70.40
2018-03-19T05:15:55.806Z,70.30
2018-03-19T05:16:58.311Z,70.30
2018-03-19T05:18:00.788Z,69.90
2018-03-19T05:19:03.281Z,69.80
2018-03-19T05:20:05.776Z,69.60
2018-03-19T05:21:08.282Z,69.40
2018-03-19T05:22:11.631Z,69.80
2018-03-19T05:23:14.213Z,69.80
2018-03-19T05:24:16.857Z,69.80
2018-03-19T05:25:19.376Z,70.00
2018-03-19T05:26:22.617Z,70.00
2018-03-19T05:27:25.118Z,69.70
2018-03-19T05:28:27.605Z,70.00
2018-03-19T05:29:30.860Z,70.40
2018-03-19T05:30:33.351Z,70.40
2018-03-19T05:31:35.834Z,70.40
2018-03-19T05:32:38.327Z,70.50
2018-03-19T05:33:41.569Z,70.40
2018-03-19T05:34:44.068Z,70.40
2018-03-19T05:35:46.541Z,70.30
2018-03-19T05:36:49.829Z,70.10
2018-03-19T05:37:52.324Z,70.00
2018-03-19T05:38:54.827Z,70.30
2018-03-19T05:39:57.317Z,70.70
2018-03-19T05:40:59.813Z,70.00
2018-03-19T05:42:02.311Z,70.20
2018-03-19T05:43:04.798Z,70.40
2018-03-19T05:44:07.354Z,70.50
2018-03-19T05:45:10.003Z,70.50
2018-03-19T05:46:13.311Z,70.80
2018-03-19T05:47:15.789Z,70.70
2018-03-19T05:48:18.308Z,70.70
2018-03-19T05:49:20.818Z,70.70
2018-03-19T05:50:23.303Z,70.60
2018-03-19T05:51:25.804Z,70.40
2018-03-19T05:52:28.533Z,70.30
2018-03-19T05:53:31.800Z,70.70
2018-03-19T05:54:34.292Z,70.60
2018-03-19T05:55:37.537Z,70.20
2018-03-19T05:56:40.105Z,70.20
2018-03-19T05:57:42.537Z,70.10
2018-03-19T05:58:45.052Z,70.10
2018-03-19T05:59:47.554Z,70.20
2018-03-19T06:00:50.805Z,70.20
2018-03-19T06:01:53.301Z,70.10
2018-03-19T06:02:55.794Z,70.00
2018-03-19T06:03:59.062Z,69.70
2018-03-19T06:05:01.687Z,69.70
2018-03-19T06:06:04.203Z,69.90
2018-03-19T06:07:06.690Z,69.90
2018-03-19T06:08:10.039Z,69.80
2018-03-19T06:09:12.629Z,69.70
2018-03-19T06:10:15.117Z,69.90
2018-03-19T06:11:17.601Z,69.70
2018-03-19T06:12:20.850Z,70.20
2018-03-19T06:13:23.353Z,70.20
2018-03-19T06:14:26.633Z,70.90
2018-03-19T06:15:29.250Z,70.80
2018-03-19T06:16:31.770Z,70.80
2018-03-19T06:17:34.288Z,70.80
2018-03-19T06:18:36.785Z,71.00
2018-03-19T06:19:39.290Z,71.00
2018-03-19T06:20:41.785Z,71.10
2018-03-19T06:21:44.284Z,70.90
2018-03-19T06:22:47.455Z,70.60
2018-03-19T06:23:49.950Z,70.10
2018-03-19T06:24:52.446Z,69.80
2018-03-19T06:25:54.946Z,69.80
2018-03-19T06:26:58.511Z,69.60
2018-03-19T06:28:01.000Z,69.40
2018-03-19T06:29:04.242Z,68.20
2018-03-19T06:30:06.758Z,68.20
2018-03-19T06:31:10.979Z,67.70
2018-03-19T06:32:14.223Z,67.10
2018-03-19T06:33:16.716Z,67.00
2018-03-19T06:34:19.240Z,66.60
2018-03-19T06:35:21.811Z,66.90
2018-03-19T06:36:24.300Z,66.40
2018-03-19T06:37:26.783Z,66.50
2018-03-19T06:38:29.276Z,66.00
2018-03-19T06:39:31.764Z,65.70
2018-03-19T06:40:34.269Z,65.10
2018-03-19T06:41:36.758Z,65.10
2018-03-19T06:42:39.288Z,64.80
2018-03-19T06:43:41.778Z,65.00
2018-03-19T06:44:44.273Z,64.50
2018-03-19T06:45:46.792Z,64.50
2018-03-19T06:46:50.053Z,63.30
2018-03-19T06:47:52.558Z,63.30
2018-03-19T06:48:55.033Z,63.60
2018-03-19T06:49:58.508Z,63.40
2018-03-19T06:51:01.833Z,62.30
2018-03-19T06:52:04.359Z,62.30
2018-03-19T06:53:07.089Z,62.00
2018-03-19T06:54:09.639Z,61.80
2018-03-19T06:55:13.248Z,61.30
2018-03-19T06:56:15.734Z,61.40
2018-03-19T06:57:18.219Z,60.90
2018-03-19T06:58:20.692Z,61.00
2018-03-19T06:59:23.180Z,60.30
2018-03-19T07:00:25.929Z,59.40
2018-03-19T07:01:28.439Z,58.90
2018-03-19T07:02:31.745Z,57.70
2018-03-19T07:03:36.261Z,57.70
2018-03-19T07:04:38.739Z,57.30
2018-03-19T07:05:41.250Z,57.70
2018-03-19T07:06:43.810Z,57.40
2018-03-19T07:07:46.343Z,56.40
2018-03-19T07:08:49.584Z,54.70
2018-03-19T07:09:52.074Z,54.60
2018-03-19T07:10:55.123Z,54.10
2018-03-19T07:11:57.655Z,53.80
2018-03-19T07:13:00.414Z,53.70
2018-03-19T07:14:03.680Z,53.80
2018-03-19T07:15:06.158Z,53.80
2018-03-19T07:16:08.940Z,53.30
2018-03-19T07:17:11.580Z,53.20
2018-03-19T07:18:14.202Z,52.70
2018-03-19T07:19:16.738Z,52.20
2018-03-19T07:20:19.249Z,51.80
2018-03-19T07:21:22.842Z,52.20
2018-03-19T07:22:25.381Z,52.20
2018-03-19T07:23:27.922Z,51.80
2018-03-19T07:24:30.416Z,52.10
2018-03-19T07:25:32.912Z,52.50
2018-03-19T07:26:35.396Z,50.80
2018-03-19T07:27:38.661Z,50.20
2018-03-19T07:28:41.193Z,50.10
2018-03-19T07:29:43.678Z,50.40
2018-03-19T07:30:46.170Z,50.00
2018-03-19T07:31:48.721Z,50.10
2018-03-19T07:32:51.285Z,50.20
2018-03-19T07:33:53.808Z,49.20
2018-03-19T07:34:57.095Z,48.40
2018-03-19T07:36:00.383Z,47.50
2018-03-19T07:37:02.898Z,47.40
2018-03-19T07:38:07.012Z,47.30
2018-03-19T07:39:09.585Z,46.10
2018-03-19T07:40:12.218Z,45.50
2018-03-19T07:41:15.500Z,47.30
2018-03-19T07:42:18.775Z,47.60
2018-03-19T07:43:21.282Z,47.60
2018-03-19T07:44:23.833Z,48.10
2018-03-19T07:45:26.505Z,48.80
2018-03-19T07:46:29.770Z,47.70
2018-03-19T07:47:32.397Z,47.60
2018-03-19T07:48:35.025Z,48.00
2018-03-19T07:49:37.711Z,48.40
2018-03-19T07:50:40.211Z,48.10
2018-03-19T07:51:42.734Z,47.50
2018-03-19T07:52:45.423Z,46.40
2018-03-19T07:53:48.696Z,46.70
2018-03-19T07:54:51.575Z,46.70
2018-03-19T07:55:54.103Z,47.00
2018-03-19T07:56:56.762Z,46.20
2018-03-19T07:57:59.307Z,45.90
2018-03-19T07:59:02.580Z,46.20
2018-03-19T08:00:05.109Z,46.10
2018-03-19T08:01:08.546Z,46.50
2018-03-19T08:02:11.211Z,47.10
2018-03-19T08:03:13.805Z,46.90
2018-03-19T08:04:16.299Z,47.00
2018-03-19T08:05:19.186Z,46.80
2018-03-19T08:06:22.235Z,47.40
2018-03-19T08:07:24.744Z,46.80
2018-03-19T08:08:27.418Z,46.60
2018-03-19T08:09:29.926Z,46.90
2018-03-19T08:10:33.130Z,47.00
2018-03-19T08:11:35.697Z,46.80
2018-03-19T08:12:38.326Z,46.90
2018-03-19T08:13:40.908Z,47.20
2018-03-19T08:14:43.404Z,47.00
2018-03-19T08:15:45.942Z,46.10
2018-03-19T08:16:48.550Z,45.60
2018-03-19T08:17:51.231Z,45.00
2018-03-19T08:18:53.789Z,44.90
2018-03-19T08:19:56.317Z,44.70
2018-03-19T08:20:59.579Z,44.60
2018-03-19T08:22:02.117Z,44.60
2018-03-19T08:23:04.602Z,44.30
2018-03-19T08:24:08.104Z,44.20
2018-03-19T08:25:11.440Z,43.50
2018-03-19T08:26:13.971Z,43.50
2018-03-19T08:27:16.485Z,44.30
2018-03-19T08:28:19.092Z,44.50
2018-03-19T08:29:21.598Z,44.30
2018-03-19T08:30:24.116Z,44.60
2018-03-19T08:31:26.605Z,45.70
2018-03-19T08:32:29.093Z,44.50
2018-03-19T08:33:31.585Z,44.20
2018-03-19T08:34:35.200Z,44.00
2018-03-19T08:35:37.761Z,44.00
2018-03-19T08:36:41.051Z,44.60
2018-03-19T08:37:44.321Z,44.40
2018-03-19T08:38:46.877Z,44.30
2018-03-19T08:39:49.541Z,43.90
2018-03-19T08:40:52.103Z,43.40
2018-03-19T08:41:54.923Z,43.30
2018-03-19T08:42:57.411Z,43.20
2018-03-19T08:44:01.030Z,42.60
2018-03-19T08:45:04.375Z,42.70
2018-03-19T08:46:06.880Z,42.20
2018-03-19T08:47:09.419Z,42.00
2018-03-19T08:48:13.027Z,42.70
2018-03-19T08:49:15.545Z,43.00
2018-03-19T08:50:18.656Z,43.50
2018-03-19T08:51:21.140Z,43.60
2018-03-19T08:52:23.628Z,43.30
2018-03-19T08:53:26.899Z,43.20
2018-03-19T08:54:29.441Z,43.20
2018-03-19T08:55:32.057Z,43.80
2018-03-19T08:56:35.349Z,44.90
2018-03-19T08:57:38.095Z,44.90
2018-03-19T08:58:40.612Z,44.90
2018-03-19T08:59:43.106Z,44.30
2018-03-19T09:00:45.875Z,44.30
2018-03-19T09:01:48.505Z,43.80
2018-03-19T09:02:51.623Z,43.80
2018-03-19T09:03:54.279Z,44.60
2018-03-19T09:04:57.630Z,44.00
2018-03-19T09:06:00.213Z,44.00
2018-03-19T09:07:02.806Z,44.10
2018-03-19T09:08:05.573Z,43.60
2018-03-19T09:09:08.081Z,43.30
2018-03-19T09:10:10.968Z,43.10
2018-03-19T09:11:13.610Z,42.60
2018-03-19T09:12:16.935Z,43.60
2018-03-19T09:13:19.445Z,43.60
2018-03-19T09:14:21.934Z,43.40
2018-03-19T09:15:24.482Z,43.70
2018-03-19T09:16:27.031Z,44.10
2018-03-19T09:17:29.537Z,44.20
2018-03-19T09:18:32.038Z,44.60
2018-03-19T09:19:34.537Z,43.90
2018-03-19T09:20:37.052Z,44.00
2018-03-19T09:21:39.580Z,43.60
2018-03-19T09:22:42.108Z,43.40
2018-03-19T09:23:44.629Z,43.80
2018-03-19T09:24:47.222Z,43.90
2018-03-19T09:25:49.778Z,43.80
2018-03-19T09:26:52.305Z,43.80
2018-03-19T09:27:55.560Z,44.50
2018-03-19T09:28:58.147Z,44.40
2018-03-19T09:30:00.735Z,44.60
2018-03-19T09:31:03.321Z,44.90
2018-03-19T09:32:05.874Z,45.40
2018-03-19T09:33:08.384Z,45.30
2018-03-19T09:34:11.737Z,45.40
2018-03-19T09:35:14.374Z,45.40
2018-03-19T09:36:16.910Z,45.30
2018-03-19T09:37:19.442Z,45.20
2018-03-19T09:38:21.964Z,45.10
2018-03-19T09:39:24.675Z,44.40
2018-03-19T09:40:27.176Z,44.70
2018-03-19T09:41:30.482Z,44.50
2018-03-19T09:42:33.046Z,44.60
2018-03-19T09:43:35.575Z,44.30
2018-03-19T09:44:38.076Z,44.60
2018-03-19T09:45:41.358Z,45.40
2018-03-19T09:46:43.857Z,45.40
2018-03-19T09:47:46.747Z,45.00
2018-03-19T09:48:49.347Z,45.30
2018-03-19T09:49:51.876Z,44.50
2018-03-19T09:50:54.375Z,44.90
2018-03-19T09:51:56.884Z,45.20
2018-03-19T09:53:00.188Z,45.40
2018-03-19T09:54:03.489Z,45.20
2018-03-19T09:55:06.785Z,45.20
2018-03-19T09:56:09.517Z,45.20
2018-03-19T09:57:12.228Z,46.00
2018-03-19T09:58:15.855Z,46.30
2018-03-19T09:59:18.378Z,46.30
2018-03-19T10:00:20.884Z,46.70
2018-03-19T10:01:23.386Z,47.20
2018-03-19T10:02:25.880Z,46.80
2018-03-19T10:03:28.395Z,47.10
2018-03-19T10:04:30.947Z,47.00
2018-03-19T10:05:34.218Z,47.30
2018-03-19T10:06:37.517Z,47.20
2018-03-19T10:07:40.082Z,47.20
2018-03-19T10:08:42.569Z,47.10
2018-03-19T10:09:45.827Z,47.30
2018-03-19T10:10:48.351Z,47.30
2018-03-19T10:11:50.896Z,47.00
2018-03-19T10:12:53.438Z,47.20
2018-03-19T10:13:56.731Z,47.30
2018-03-19T10:14:59.224Z,47.40
2018-03-19T10:16:02.497Z,47.40
2018-03-19T10:17:05.210Z,47.40
2018-03-19T10:18:07.752Z,47.40
2018-03-19T10:19:10.465Z,47.80
2018-03-19T10:20:13.114Z,47.90
2018-03-19T10:21:16.424Z,48.80
2018-03-19T10:22:19.058Z,48.90
2018-03-19T10:23:21.596Z,48.70
2018-03-19T10:24:24.129Z,49.20
2018-03-19T10:25:26.667Z,49.00
2018-03-19T10:26:29.177Z,49.40
2018-03-19T10:27:31.753Z,49.20
2018-03-19T10:28:34.250Z,49.60
2018-03-19T10:29:36.761Z,49.40
2018-03-19T10:30:39.266Z,48.90
2018-03-19T10:31:41.761Z,48.80
2018-03-19T10:32:44.250Z,49.10
2018-03-19T10:33:47.135Z,48.90
2018-03-19T10:34:49.640Z,49.60
2018-03-19T10:35:52.949Z,50.00
2018-03-19T10:36:55.438Z,50.00
2018-03-19T10:37:57.926Z,50.30
2018-03-19T10:39:00.412Z,49.70
2018-03-19T10:40:02.923Z,50.10
2018-03-19T10:41:06.239Z,49.90
2018-03-19T10:42:09.133Z,49.90
2018-03-19T10:43:11.681Z,49.90
2018-03-19T10:44:14.232Z,49.90
2018-03-19T10:45:16.794Z,50.90
2018-03-19T10:46:20.114Z,50.60
2018-03-19T10:47:22.599Z,50.50
2018-03-19T10:48:25.080Z,50.40
2018-03-19T10:49:27.585Z,50.30
2018-03-19T10:50:30.114Z,50.50
2018-03-19T10:51:33.540Z,50.90
2018-03-19T10:52:36.521Z,51.20
2018-03-19T10:53:39.105Z,50.70
2018-03-19T10:54:41.611Z,50.10
2018-03-19T10:55:44.221Z,50.60
2018-03-19T10:56:46.810Z,50.20
2018-03-19T10:57:49.442Z,50.00
2018-03-19T10:58:51.922Z,49.70
2018-03-19T10:59:54.403Z,49.40
2018-03-19T11:01:03.457Z,49.70
2018-03-19T11:02:11.629Z,49.90
2018-03-19T11:03:19.609Z,50.30
2018-03-19T11:04:22.454Z,50.20
2018-03-19T11:05:30.581Z,50.60
2018-03-19T11:06:36.861Z,50.40
2018-03-19T11:07:44.885Z,50.50
2018-03-19T11:08:47.473Z,50.60
2018-03-19T11:09:50.053Z,50.60
2018-03-19T11:10:53.350Z,49.90
2018-03-19T11:11:56.004Z,50.00
2018-03-19T11:12:58.400Z,50.30
2018-03-19T11:14:02.444Z,50.60
2018-03-19T11:15:05.053Z,50.70
2018-03-19T11:16:07.567Z,51.00
2018-03-19T11:17:10.470Z,51.20
2018-03-19T11:18:13.418Z,50.70
2018-03-19T11:19:15.997Z,50.70
2018-03-19T11:20:18.504Z,50.40
2018-03-19T11:21:20.968Z,50.60
2018-03-19T11:22:23.461Z,50.00
2018-03-19T11:23:25.956Z,50.40
2018-03-19T11:24:29.308Z,49.60
2018-03-19T11:25:31.802Z,49.40
2018-03-19T11:26:34.320Z,50.00
2018-03-19T11:27:36.828Z,50.00
2018-03-19T11:28:39.332Z,49.70
2018-03-19T11:29:42.587Z,50.20
2018-03-19T11:30:45.127Z,50.10
2018-03-19T11:31:47.614Z,50.20
2018-03-19T11:32:50.107Z,50.60
2018-03-19T11:33:52.590Z,50.70
2018-03-19T11:34:55.153Z,50.00
2018-03-19T11:35:57.671Z,50.10
2018-03-19T11:37:00.269Z,50.60
2018-03-19T11:38:02.774Z,51.20
2018-03-19T11:39:05.258Z,50.70
2018-03-19T11:40:11.319Z,50.40
2018-03-19T11:41:16.805Z,50.40
2018-03-19T11:42:19.307Z,50.30
2018-03-19T11:43:24.975Z,49.90
2018-03-19T11:44:28.583Z,50.20
2018-03-19T11:45:34.122Z,50.30
2018-03-19T11:46:36.651Z,50.50
2018-03-19T11:47:39.918Z,50.90
2018-03-19T11:48:42.437Z,50.90
2018-03-19T11:49:44.958Z,50.70
2018-03-19T11:50:47.470Z,50.90
2018-03-19T11:51:50.713Z,51.00
2018-03-19T11:52:53.280Z,51.20
2018-03-19T11:53:56.475Z,51.00
2018-03-19T11:54:58.971Z,51.00
2018-03-19T11:56:02.245Z,50.80
2018-03-19T11:57:05.503Z,50.00
2018-03-19T11:58:08.050Z,49.90
2018-03-19T11:59:11.411Z,49.90
2018-03-19T12:00:13.916Z,49.80
2018-03-19T12:01:16.409Z,50.00
2018-03-19T12:02:18.962Z,50.50
2018-03-19T12:03:21.487Z,50.50
2018-03-19T12:04:24.793Z,50.80
2018-03-19T12:05:28.282Z,50.80
2018-03-19T12:06:30.788Z,50.80
2018-03-19T12:07:33.301Z,50.20
2018-03-19T12:08:35.805Z,50.60
2018-03-19T12:09:39.107Z,50.70
2018-03-19T12:10:41.587Z,50.70
2018-03-19T12:11:44.084Z,50.50
2018-03-19T12:12:46.585Z,49.30
2018-03-19T12:13:49.088Z,48.70
2018-03-19T12:14:51.610Z,49.60
2018-03-19T12:15:54.240Z,49.30
2018-03-19T12:16:56.771Z,49.30
2018-03-19T12:17:59.255Z,49.10
2018-03-19T12:19:02.524Z,49.70
2018-03-19T12:20:05.091Z,49.60
2018-03-19T12:21:07.578Z,50.30
2018-03-19T12:22:11.089Z,50.10
2018-03-19T12:23:14.357Z,49.40
2018-03-19T12:24:16.875Z,49.30
2018-03-19T12:25:19.415Z,49.40
2018-03-19T12:26:22.745Z,49.40
2018-03-19T12:27:25.296Z,49.40
2018-03-19T12:28:27.810Z,49.10
2018-03-19T12:29:30.330Z,49.60
2018-03-19T12:30:32.847Z,49.60
2018-03-19T12:31:35.336Z,49.30
2018-03-19T12:32:37.994Z,48.80
2018-03-19T12:33:40.486Z,48.80
2018-03-19T12:34:43.017Z,49.00
2018-03-19T12:35:46.318Z,48.00
2018-03-19T12:36:49.553Z,48.50
2018-03-19T12:37:52.053Z,48.50
2018-03-19T12:38:54.539Z,48.80
2018-03-19T12:39:57.792Z,49.20
2018-03-19T12:41:00.287Z,49.20
2018-03-19T12:42:02.776Z,48.70
2018-03-19T12:43:06.013Z,48.80
2018-03-19T12:44:08.513Z,48.80
2018-03-19T12:45:11.114Z,48.30
2018-03-19T12:46:13.610Z,48.20
2018-03-19T12:47:16.134Z,48.10
2018-03-19T12:48:19.395Z,48.80
2018-03-19T12:49:21.900Z,48.70
2018-03-19T12:50:24.387Z,49.10
2018-03-19T12:51:30.744Z,49.00
2018-03-19T12:52:34.041Z,48.60
2018-03-19T12:53:36.800Z,48.60
2018-03-19T12:54:40.056Z,48.10
2018-03-19T12:55:42.556Z,48.10
2018-03-19T12:56:45.822Z,47.50
2018-03-19T12:57:48.314Z,47.40
2018-03-19T12:58:50.832Z,47.80
2018-03-19T12:59:53.309Z,48.00
2018-03-19T13:00:55.790Z,47.40
2018-03-19T13:01:58.287Z,48.10
2018-03-19T13:03:01.713Z,47.90
2018-03-19T13:04:04.226Z,47.70
2018-03-19T13:05:06.794Z,48.00
2018-03-19T13:06:09.299Z,47.80
2018-03-19T13:07:12.652Z,46.80
2018-03-19T13:08:15.140Z,46.80
2018-03-19T13:09:17.638Z,47.30
2018-03-19T13:10:20.140Z,47.70
2018-03-19T13:11:22.654Z,47.60
2018-03-19T13:12:26.085Z,48.00
2018-03-19T13:13:28.572Z,47.60
2018-03-19T13:14:31.069Z,47.40
2018-03-19T13:15:33.580Z,48.10
2018-03-19T13:16:36.072Z,47.70
2018-03-19T13:17:38.581Z,47.00
2018-03-19T13:18:41.156Z,47.20
2018-03-19T13:19:44.565Z,46.40
2018-03-19T13:20:47.063Z,46.30
2018-03-19T13:21:50.311Z,46.50
2018-03-19T13:22:52.846Z,46.60
2018-03-19T13:23:55.379Z,47.20
2018-03-19T13:24:58.657Z,46.40
2018-03-19T13:26:01.765Z,46.30
2018-03-19T13:27:05.052Z,45.70
2018-03-19T13:28:08.313Z,45.80
2018-03-19T13:29:10.910Z,45.80